WXM80 ListenWXM80 Stop

You find our weather info also at:

UK Metoffice

WeatherCloud

Weather Underground

Northeastern Weather Network

AWEKAS

Citizen Weather Observer Program (CWOP)

HAMweather, WeatherForYou, PWS Weather


Weather Underground History page Text

Daily Summary for February 20, 2017 Units:  English    Metric   Both
« Previous Day
Next Day »
Daily Weekly Monthly Yearly Custom
  High: Low: Average:
Temperature: 54.0 °F 35.9 °F 43.8 °F
Dew Point: 37.8 °F 24.3 °F 31.2 °F
Humidity: 85 % 40 % 62 %
Wind Speed: 9.8 mph 0.0 mph 3.2 mph
Wind Gust: 16.1 mph - -
Wind:- - SSW
Pressure: 30.33 in 29.94 in -
Precipitation: 0.00 in    
Historical Graphs
 
 
Tabular Data for February 20, 2017
Time Temperature Dew Point Pressure Wind Wind Speed Wind Gust Humidity Rainfall Rate (Hourly)
00:00 45.2 °F 34.1 °F 29.94 in Calm   2.3 mph 65 % 0.00 in
00:05 45.0 °F 33.9 °F 29.94 in Calm     65 % 0.00 in
00:10 44.7 °F 34.0 °F 29.94 in WNW 0.3 mph 2.0 mph 66 % 0.00 in
00:15 44.3 °F 33.7 °F 29.95 in Calm   1.2 mph 66 % 0.00 in
00:20 44.0 °F 33.4 °F 29.95 in Calm   1.2 mph 66 % 0.00 in
00:25 43.7 °F 33.5 °F 29.95 in Calm     67 % 0.00 in
00:31 43.4 °F 33.5 °F 29.95 in WNW 0.9 mph 2.3 mph 68 % 0.00 in
00:36 43.1 °F 33.6 °F 29.96 in WNW 0.3 mph 1.2 mph 69 % 0.00 in
00:41 42.9 °F 33.4 °F 29.96 in WNW 2.3 mph 3.5 mph 69 % 0.00 in
00:46 42.8 °F 33.7 °F 29.96 in NW 0.4 mph 3.5 mph 70 % 0.00 in
00:51 42.7 °F 33.6 °F 29.96 in WNW 0.3 mph 2.3 mph 70 % 0.00 in
00:56 42.6 °F 33.9 °F 29.96 in Calm     71 % 0.00 in
01:01 42.5 °F 33.4 °F 29.96 in Calm     70 % 0.00 in
01:06 42.2 °F 33.1 °F 29.96 in Calm   1.2 mph 70 % 0.00 in
01:11 41.9 °F 33.5 °F 29.96 in Calm   1.2 mph 72 % 0.00 in
01:16 41.7 °F 33.3 °F 29.96 in Calm     72 % 0.00 in
01:21 41.5 °F 33.5 °F 29.96 in Calm     73 % 0.00 in
01:26 41.2 °F 33.5 °F 29.96 in WNW 0.1 mph 1.0 mph 74 % 0.00 in
01:31 40.8 °F 33.5 °F 29.97 in WNW 1.1 mph 2.3 mph 75 % 0.00 in
01:36 40.7 °F 33.4 °F 29.96 in WNW 0.6 mph 1.2 mph 75 % 0.00 in
01:41 40.7 °F 33.4 °F 29.97 in WNW 0.1 mph 1.2 mph 75 % 0.00 in
01:51 40.5 °F 33.5 °F 29.97 in Calm     76 % 0.00 in
01:56 40.4 °F 33.4 °F 29.97 in Calm     76 % 0.00 in
02:01 40.3 °F 33.7 °F 29.97 in Calm     77 % 0.00 in
02:06 40.3 °F 33.7 °F 29.97 in Calm     77 % 0.00 in
02:11 40.2 °F 33.2 °F 29.97 in Calm     76 % 0.00 in
02:16 39.9 °F 32.9 °F 29.97 in Calm     76 % 0.00 in
02:21 39.7 °F 33.4 °F 29.97 in Calm     78 % 0.00 in
02:26 39.5 °F 33.5 °F 29.97 in Calm     79 % 0.00 in
02:31 39.5 °F 33.5 °F 29.97 in WNW 1.7 mph 3.5 mph 79 % 0.00 in
02:37 39.5 °F 33.8 °F 29.97 in Calm     80 % 0.00 in
02:42 39.6 °F 33.6 °F 29.97 in WNW 0.2 mph 1.2 mph 79 % 0.00 in
02:47 39.7 °F 33.7 °F 29.97 in NW 0.2 mph 3.5 mph 79 % 0.00 in
02:52 39.7 °F 33.7 °F 29.97 in NW 0.1 mph   79 % 0.00 in
02:57 39.5 °F 32.9 °F 29.98 in Calm   1.2 mph 77 % 0.00 in
03:02 39.4 °F 33.1 °F 29.98 in NW 0.6 mph 2.0 mph 78 % 0.00 in
03:07 39.4 °F 33.4 °F 29.98 in NW 0.8 mph 2.0 mph 79 % 0.00 in
03:12 39.3 °F 33.6 °F 29.98 in NW 1.8 mph 2.3 mph 80 % 0.00 in
03:17 39.4 °F 34.1 °F 29.99 in West 3.8 mph 5.0 mph 81 % 0.00 in
03:22 39.6 °F 34.2 °F 29.99 in West 1.1 mph 2.3 mph 81 % 0.00 in
03:27 39.8 °F 34.4 °F 29.99 in WNW 1.0 mph 3.5 mph 81 % 0.00 in
03:32 39.9 °F 34.5 °F 29.99 in WNW 2.3 mph 4.6 mph 81 % 0.00 in
03:37 40.1 °F 34.7 °F 29.99 in NW 1.3 mph 3.5 mph 81 % 0.00 in
03:42 40.4 °F 34.7 °F 30.00 in WNW 2.1 mph 4.6 mph 80 % 0.00 in
03:47 40.7 °F 34.7 °F 30.00 in West 3.8 mph 5.8 mph 79 % 0.00 in
03:52 41.0 °F 35.0 °F 30.00 in WNW 2.4 mph 5.8 mph 79 % 0.00 in
03:57 41.4 °F 35.1 °F 30.00 in WNW 2.1 mph 2.3 mph 78 % 0.00 in
04:02 41.6 °F 34.9 °F 30.00 in WNW 1.7 mph 3.5 mph 77 % 0.00 in
04:07 41.9 °F 34.9 °F 30.00 in WNW 2.0 mph 4.0 mph 76 % 0.00 in
04:12 42.0 °F 35.0 °F 30.01 in Calm   2.3 mph 76 % 0.00 in
04:17 42.2 °F 34.8 °F 30.01 in WNW 0.8 mph 2.3 mph 75 % 0.00 in
04:22 42.3 °F 34.9 °F 30.01 in WNW 0.7 mph 2.3 mph 75 % 0.00 in
04:27 42.4 °F 34.7 °F 30.01 in Calm     74 % 0.00 in
04:32 42.5 °F 34.8 °F 30.02 in Calm     74 % 0.00 in
04:38 42.5 °F 34.8 °F 30.02 in Calm   1.0 mph 74 % 0.00 in
04:43 42.4 °F 34.7 °F 30.02 in WNW 0.6 mph 3.5 mph 74 % 0.00 in
04:48 42.3 °F 34.6 °F 30.03 in WNW 0.1 mph 1.2 mph 74 % 0.00 in
04:53 42.1 °F 34.4 °F 30.02 in Calm     74 % 0.00 in
04:58 41.8 °F 34.5 °F 30.03 in West 2.4 mph 3.5 mph 75 % 0.00 in
05:03 41.5 °F 34.2 °F 30.03 in West 1.8 mph 3.5 mph 75 % 0.00 in
05:08 41.4 °F 34.4 °F 30.03 in West 1.1 mph 2.3 mph 76 % 0.00 in
05:13 41.2 °F 34.2 °F 30.04 in WNW 0.8 mph 3.5 mph 76 % 0.00 in
05:18 41.1 °F 34.4 °F 30.04 in WNW 0.7 mph 3.5 mph 77 % 0.00 in
05:23 41.1 °F 34.4 °F 30.04 in Calm   2.3 mph 77 % 0.00 in
05:28 40.9 °F 33.9 °F 30.04 in WNW 0.4 mph 1.2 mph 76 % 0.00 in
05:33 40.7 °F 33.7 °F 30.05 in Calm     76 % 0.00 in
05:38 40.4 °F 33.4 °F 30.05 in Calm   1.2 mph 76 % 0.00 in
05:43 39.8 °F 31.8 °F 30.05 in Calm     73 % 0.00 in
05:48 39.3 °F 31.7 °F 30.05 in Calm   1.0 mph 74 % 0.00 in
05:53 38.5 °F 31.9 °F 30.06 in NW 1.0 mph 3.0 mph 77 % 0.00 in
05:58 38.1 °F 32.5 °F 30.06 in West 1.8 mph 3.5 mph 80 % 0.00 in
06:03 37.9 °F 32.6 °F 30.06 in West 0.2 mph 2.3 mph 81 % 0.00 in
06:08 37.8 °F 32.8 °F 30.07 in West 0.8 mph 2.3 mph 82 % 0.00 in
06:13 37.7 °F 32.7 °F 30.07 in West 1.5 mph 2.3 mph 82 % 0.00 in
06:18 37.7 °F 33.0 °F 30.07 in West 1.4 mph 2.3 mph 83 % 0.00 in
06:23 37.6 °F 33.2 °F 30.07 in West 1.3 mph 3.5 mph 84 % 0.00 in
06:28 37.6 °F 33.2 °F 30.08 in Calm   1.2 mph 84 % 0.00 in
06:33 37.5 °F 33.1 °F 30.08 in West 1.6 mph 3.5 mph 84 % 0.00 in
06:38 37.5 °F 33.1 °F 30.09 in West 2.1 mph 3.5 mph 84 % 0.00 in
06:44 37.5 °F 33.4 °F 30.09 in West 0.6 mph 1.2 mph 85 % 0.00 in
06:49 37.4 °F 33.0 °F 30.09 in West 1.8 mph 3.5 mph 84 % 0.00 in
06:54 37.4 °F 33.3 °F 30.09 in WSW 2.3 mph 3.5 mph 85 % 0.00 in
06:59 37.5 °F 33.4 °F 30.10 in WSW 1.3 mph 3.5 mph 85 % 0.00 in
07:04 37.6 °F 33.5 °F 30.10 in WSW 1.6 mph 3.5 mph 85 % 0.00 in
07:09 37.8 °F 33.7 °F 30.10 in SW 1.1 mph 4.6 mph 85 % 0.00 in
07:14 38.0 °F 33.9 °F 30.10 in SW 1.2 mph 3.5 mph 85 % 0.00 in
07:19 38.3 °F 34.2 °F 30.10 in SW 1.6 mph 3.5 mph 85 % 0.00 in
07:24 38.6 °F 34.5 °F 30.10 in WNW 1.1 mph 2.3 mph 85 % 0.00 in
07:29 39.0 °F 34.6 °F 30.10 in West 0.9 mph 2.3 mph 84 % 0.00 in
07:34 39.3 °F 34.9 °F 30.10 in NW 1.3 mph 3.5 mph 84 % 0.00 in
07:39 39.7 °F 35.0 °F 30.11 in WNW 0.5 mph 3.0 mph 83 % 0.00 in
07:44 40.0 °F 34.9 °F 30.11 in WNW 0.7 mph 3.5 mph 82 % 0.00 in
07:49 40.4 °F 35.0 °F 30.11 in WNW 2.4 mph 5.0 mph 81 % 0.00 in
07:54 40.7 °F 35.0 °F 30.11 in WNW 3.0 mph 4.0 mph 80 % 0.00 in
07:59 41.1 °F 35.1 °F 30.11 in WNW 2.7 mph 6.9 mph 79 % 0.00 in
08:04 41.4 °F 35.4 °F 30.11 in West 2.0 mph 3.5 mph 79 % 0.00 in
08:09 41.8 °F 35.4 °F 30.12 in WSW 0.7 mph 2.0 mph 78 % 0.00 in
08:14 42.2 °F 35.8 °F 30.12 in WNW 1.7 mph 4.6 mph 78 % 0.00 in
08:20 42.7 °F 35.7 °F 30.12 in WSW 2.9 mph 3.5 mph 76 % 0.00 in
08:24 43.1 °F 35.7 °F 30.12 in WNW 1.5 mph 3.5 mph 75 % 0.00 in
08:30 43.4 °F 36.0 °F 30.12 in WNW 3.5 mph 5.8 mph 75 % 0.00 in
08:35 43.8 °F 35.7 °F 30.12 in WNW 4.6 mph 6.9 mph 73 % 0.00 in
08:40 44.1 °F 36.0 °F 30.13 in NW 2.8 mph 4.6 mph 73 % 0.00 in
08:45 44.4 °F 35.9 °F 30.13 in NNW 2.5 mph 4.6 mph 72 % 0.00 in
08:50 44.7 °F 36.2 °F 30.13 in WNW 1.5 mph 3.5 mph 72 % 0.00 in
08:55 45.0 °F 36.5 °F 30.13 in WNW 2.2 mph 4.6 mph 72 % 0.00 in
09:00 45.2 °F 36.4 °F 30.14 in NNW 2.1 mph 4.6 mph 71 % 0.00 in
09:05 45.6 °F 36.7 °F 30.14 in WNW 2.4 mph 6.0 mph 71 % 0.00 in
09:10 45.8 °F 36.6 °F 30.13 in WNW 3.1 mph 4.6 mph 70 % 0.00 in
09:15 46.1 °F 36.9 °F 30.14 in WNW 1.0 mph 4.6 mph 70 % 0.00 in
09:20 46.5 °F 36.5 °F 30.13 in WNW 2.5 mph 7.0 mph 68 % 0.00 in
09:25 46.7 °F 36.7 °F 30.14 in WNW 3.2 mph 6.9 mph 68 % 0.00 in
09:30 46.9 °F 36.5 °F 30.13 in WNW 3.8 mph 6.9 mph 67 % 0.00 in
09:35 47.2 °F 37.2 °F 30.14 in NW 1.0 mph 3.5 mph 68 % 0.00 in
09:40 47.6 °F 37.2 °F 30.14 in West 4.1 mph 8.0 mph 67 % 0.00 in
09:45 47.8 °F 37.4 °F 30.14 in WNW 4.0 mph 6.9 mph 67 % 0.00 in
09:47 47.9 °F 37.5 °F 30.14 in NW 2.0 mph 5.8 mph 67 % 0.00 in
09:52 48.3 °F 37.5 °F 30.15 in NNW 2.6 mph 6.9 mph 66 % 0.00 in
09:57 48.6 °F 37.7 °F 30.15 in NW 3.5 mph 5.0 mph 66 % 0.00 in
10:02 48.8 °F 37.2 °F 30.15 in WNW 4.7 mph 6.0 mph 64 % 0.00 in
10:07 49.0 °F 37.3 °F 30.15 in NW 3.3 mph 4.6 mph 64 % 0.00 in
10:12 49.2 °F 37.5 °F 30.15 in NNW 2.7 mph 6.9 mph 64 % 0.00 in
10:17 49.3 °F 36.8 °F 30.15 in NNW 4.3 mph 8.1 mph 62 % 0.00 in
10:22 49.5 °F 37.4 °F 30.15 in NNW 4.1 mph 5.8 mph 63 % 0.00 in
10:27 49.8 °F 37.3 °F 30.15 in NW 3.8 mph 6.9 mph 62 % 0.00 in
10:32 49.9 °F 37.8 °F 30.15 in NNW 4.0 mph 8.1 mph 63 % 0.00 in
10:37 49.9 °F 37.0 °F 30.15 in NNW 3.4 mph 6.0 mph 61 % 0.00 in
10:43 50.1 °F 36.7 °F 30.15 in NW 3.2 mph 5.8 mph 60 % 0.00 in
10:48 50.3 °F 36.9 °F 30.16 in NW 4.2 mph 5.8 mph 60 % 0.00 in
10:53 50.5 °F 37.1 °F 30.16 in NNW 3.7 mph 7.0 mph 60 % 0.00 in
10:58 50.6 °F 35.9 °F 30.16 in NNW 5.1 mph 8.1 mph 57 % 0.00 in
11:03 50.7 °F 36.5 °F 30.15 in NW 4.6 mph 8.1 mph 58 % 0.00 in
11:08 51.0 °F 35.4 °F 30.15 in WNW 5.0 mph 9.2 mph 55 % 0.00 in
11:13 51.2 °F 36.5 °F 30.16 in NW 2.1 mph 4.6 mph 57 % 0.00 in
11:18 51.9 °F 36.7 °F 30.16 in NNW 1.9 mph 6.0 mph 56 % 0.00 in
11:23 52.1 °F 35.0 °F 30.15 in NNW 5.2 mph 6.9 mph 52 % 0.00 in
11:28 51.9 °F 33.8 °F 30.16 in NNW 5.5 mph 6.9 mph 50 % 0.00 in
11:33 51.9 °F 34.3 °F 30.16 in NW 6.2 mph 8.1 mph 51 % 0.00 in
11:38 51.9 °F 34.8 °F 30.15 in NW 3.6 mph 9.2 mph 52 % 0.00 in
11:43 51.9 °F 35.3 °F 30.15 in NW 2.0 mph 9.0 mph 53 % 0.00 in
11:48 52.0 °F 33.4 °F 30.15 in NW 3.0 mph 7.0 mph 49 % 0.00 in
11:53 52.2 °F 34.1 °F 30.16 in NW 6.0 mph 12.0 mph 50 % 0.00 in
11:58 52.3 °F 34.7 °F 30.15 in NNW 2.2 mph 3.5 mph 51 % 0.00 in
12:03 52.4 °F 34.8 °F 30.15 in NW 5.0 mph 9.0 mph 51 % 0.00 in
12:08 52.5 °F 34.4 °F 30.14 in NNW 5.0 mph 8.0 mph 50 % 0.00 in
12:13 52.7 °F 34.6 °F 30.14 in NW 3.3 mph 9.2 mph 50 % 0.00 in
12:18 52.9 °F 33.7 °F 30.14 in NW 6.0 mph 9.0 mph 48 % 0.00 in
12:23 52.9 °F 33.2 °F 30.14 in NW 5.0 mph 7.0 mph 47 % 0.00 in
12:28 53.1 °F 34.4 °F 30.14 in NW 2.0 mph 5.0 mph 49 % 0.00 in
12:33 53.5 °F 33.7 °F 30.14 in NW 5.0 mph 9.0 mph 47 % 0.00 in
12:38 53.6 °F 33.3 °F 30.14 in NNW 5.0 mph 9.0 mph 46 % 0.00 in
12:43 53.7 °F 35.0 °F 30.14 in NNW 2.0 mph 7.0 mph 49 % 0.00 in
12:48 53.9 °F 35.7 °F 30.14 in NW 2.7 mph 5.0 mph 50 % 0.00 in
12:50 54.0 °F 34.7 °F 30.14 in NNW 3.0 mph 5.0 mph 48 % 0.00 in
12:55 53.8 °F 34.6 °F 30.14 in NNW 3.8 mph 5.0 mph 48 % 0.00 in
12:56 53.8 °F 34.6 °F 30.14 in NW 1.5 mph 3.5 mph 48 % 0.00 in
13:01 53.5 °F 32.1 °F 30.14 in NNW 5.7 mph 10.4 mph 44 % 0.00 in
13:07 53.3 °F 33.0 °F 30.14 in NW 2.7 mph 6.0 mph 46 % 0.00 in
13:12 53.2 °F 34.5 °F 30.13 in NW 4.6 mph 5.8 mph 49 % 0.00 in
13:17 53.2 °F 34.5 °F 30.14 in NE 2.0 mph 5.0 mph 49 % 0.00 in
13:22 53.5 °F 33.7 °F 30.14 in North 1.8 mph 4.6 mph 47 % 0.00 in
13:27 53.9 °F 33.6 °F 30.13 in North 2.4 mph 3.5 mph 46 % 0.00 in
13:32 53.9 °F 30.7 °F 30.13 in North 3.3 mph 4.6 mph 41 % 0.00 in
13:37 54.0 °F 32.0 °F 30.13 in North 3.2 mph 6.0 mph 43 % 0.00 in
13:42 54.0 °F 32.0 °F 30.13 in North 3.5 mph 4.6 mph 43 % 0.00 in
13:47 53.9 °F 31.9 °F 30.13 in NNW 0.7 mph 3.5 mph 43 % 0.00 in
13:52 53.7 °F 31.1 °F 30.13 in NNW 1.2 mph 4.6 mph 42 % 0.00 in
13:57 53.6 °F 31.0 °F 30.13 in NNE 4.1 mph 5.0 mph 42 % 0.00 in
14:02 53.5 °F 31.0 °F 30.13 in NE 4.6 mph 6.9 mph 42 % 0.00 in
14:07 53.3 °F 30.8 °F 30.13 in NNE 6.5 mph 11.5 mph 42 % 0.00 in
14:12 52.8 °F 29.7 °F 30.13 in North 4.9 mph 9.2 mph 41 % 0.00 in
14:17 52.5 °F 30.0 °F 30.14 in North 6.1 mph 11.5 mph 42 % 0.00 in
14:22 52.2 °F 29.8 °F 30.13 in North 4.5 mph 7.0 mph 42 % 0.00 in
14:27 51.8 °F 30.0 °F 30.13 in NNE 5.2 mph 11.5 mph 43 % 0.00 in
14:32 51.7 °F 28.7 °F 30.13 in NNE 6.1 mph 11.5 mph 41 % 0.00 in
14:37 51.5 °F 27.9 °F 30.13 in NNW 6.1 mph 11.5 mph 40 % 0.00 in
14:42 51.3 °F 29.5 °F 30.13 in NNW 3.2 mph 8.1 mph 43 % 0.00 in
14:43 51.3 °F 29.5 °F 30.13 in North 3.0 mph 8.0 mph 43 % 0.00 in
14:48 51.1 °F 28.8 °F 30.13 in North 6.0 mph 9.0 mph 42 % 0.00 in
14:53 50.9 °F 28.0 °F 30.13 in North 6.0 mph 12.0 mph 41 % 0.00 in
14:58 50.6 °F 28.3 °F 30.13 in NNE 6.5 mph 10.4 mph 42 % 0.00 in
15:03 50.3 °F 27.5 °F 30.14 in NNE 7.9 mph 12.0 mph 41 % 0.00 in
15:08 50.0 °F 26.6 °F 30.14 in North 4.9 mph 11.5 mph 40 % 0.00 in
15:13 49.8 °F 27.6 °F 30.14 in NNE 6.2 mph 11.5 mph 42 % 0.00 in
15:18 49.5 °F 27.9 °F 30.14 in NNE 7.1 mph 11.5 mph 43 % 0.00 in
15:23 49.1 °F 27.5 °F 30.14 in NNW 5.5 mph 9.2 mph 43 % 0.00 in
15:28 48.9 °F 28.5 °F 30.15 in NNW 5.5 mph 8.1 mph 45 % 0.00 in
15:33 48.6 °F 27.6 °F 30.15 in NNE 7.7 mph 12.7 mph 44 % 0.00 in
15:38 48.3 °F 25.7 °F 30.15 in North 7.0 mph 11.0 mph 41 % 0.00 in
15:43 48.2 °F 26.2 °F 30.15 in NNE 6.4 mph 12.7 mph 42 % 0.00 in
15:49 48.1 °F 28.3 °F 30.16 in North 6.7 mph 9.2 mph 46 % 0.00 in
15:54 47.8 °F 28.0 °F 30.16 in North 7.2 mph 9.2 mph 46 % 0.00 in
15:59 47.5 °F 27.2 °F 30.16 in NNE 6.9 mph 9.2 mph 45 % 0.00 in
16:04 47.3 °F 27.0 °F 30.17 in NNW 6.7 mph 10.4 mph 45 % 0.00 in
16:09 47.0 °F 26.7 °F 30.18 in NE 7.5 mph 11.0 mph 45 % 0.00 in
16:14 46.9 °F 26.6 °F 30.17 in NE 6.4 mph 10.4 mph 45 % 0.00 in
16:19 46.7 °F 28.0 °F 30.17 in NNE 4.2 mph 7.0 mph 48 % 0.00 in
16:24 46.6 °F 28.9 °F 30.18 in NNE 3.8 mph 5.8 mph 50 % 0.00 in
16:29 46.3 °F 28.7 °F 30.18 in North 5.6 mph 8.1 mph 50 % 0.00 in
16:34 46.0 °F 26.4 °F 30.19 in NE 7.5 mph 11.5 mph 46 % 0.00 in
16:39 45.9 °F 25.7 °F 30.19 in NE 6.8 mph 11.5 mph 45 % 0.00 in
16:44 45.7 °F 26.6 °F 30.20 in NNE 8.5 mph 10.4 mph 47 % 0.00 in
16:49 45.4 °F 26.8 °F 30.19 in NNE 7.5 mph 8.1 mph 48 % 0.00 in
16:54 45.2 °F 27.6 °F 30.20 in NNE 6.5 mph 11.5 mph 50 % 0.00 in
16:59 44.9 °F 26.9 °F 30.20 in North 7.4 mph 10.4 mph 49 % 0.00 in
17:04 44.6 °F 26.6 °F 30.20 in NNE 6.1 mph 9.2 mph 49 % 0.00 in
17:09 44.4 °F 25.9 °F 30.21 in NE 8.4 mph 12.7 mph 48 % 0.00 in
17:14 44.2 °F 25.2 °F 30.21 in NNE 7.0 mph 9.2 mph 47 % 0.00 in
17:19 44.0 °F 26.0 °F 30.21 in NNE 7.8 mph 10.4 mph 49 % 0.00 in
17:24 43.8 °F 27.3 °F 30.22 in NNE 4.7 mph 8.1 mph 52 % 0.00 in
17:29 43.6 °F 27.1 °F 30.22 in North 6.8 mph 9.2 mph 52 % 0.00 in
17:34 43.4 °F 26.9 °F 30.22 in NNE 5.5 mph 9.0 mph 52 % 0.00 in
17:39 43.2 °F 26.3 °F 30.22 in North 6.3 mph 10.4 mph 51 % 0.00 in
17:44 43.2 °F 24.3 °F 30.23 in NNE 9.8 mph 16.1 mph 47 % 0.00 in
17:50 43.2 °F 25.3 °F 30.23 in NNE 6.1 mph 9.2 mph 49 % 0.00 in
17:55 43.0 °F 27.5 °F 30.24 in North 4.6 mph 10.4 mph 54 % 0.00 in
18:00 42.8 °F 27.7 °F 30.24 in North 6.2 mph 12.0 mph 55 % 0.00 in
18:05 42.6 °F 27.1 °F 30.24 in NNE 6.1 mph 14.0 mph 54 % 0.00 in
18:10 42.6 °F 26.6 °F 30.25 in NNE 7.1 mph 11.0 mph 53 % 0.00 in
18:15 42.5 °F 27.5 °F 30.25 in North 6.4 mph 9.2 mph 55 % 0.00 in
18:20 42.3 °F 29.0 °F 30.25 in NNE 5.7 mph 9.2 mph 59 % 0.00 in
18:25 42.1 °F 27.9 °F 30.26 in NE 6.2 mph 12.0 mph 57 % 0.00 in
18:30 41.9 °F 26.9 °F 30.26 in NNE 7.2 mph 11.5 mph 55 % 0.00 in
18:35 41.9 °F 26.0 °F 30.26 in North 7.2 mph 11.5 mph 53 % 0.00 in
18:40 41.9 °F 25.1 °F 30.26 in North 8.5 mph 13.8 mph 51 % 0.00 in
18:45 42.0 °F 25.2 °F 30.26 in North 7.3 mph 9.2 mph 51 % 0.00 in
18:50 42.0 °F 26.1 °F 30.27 in NNE 4.1 mph 8.1 mph 53 % 0.00 in
18:55 41.9 °F 26.0 °F 30.27 in NW 3.4 mph 4.6 mph 53 % 0.00 in
19:00 41.8 °F 26.4 °F 30.28 in NW 4.9 mph 7.0 mph 54 % 0.00 in
19:05 41.6 °F 27.1 °F 30.28 in NNW 5.2 mph 11.5 mph 56 % 0.00 in
19:10 41.5 °F 27.0 °F 30.29 in North 3.6 mph 6.0 mph 56 % 0.00 in
19:15 41.4 °F 26.0 °F 30.29 in NNE 3.5 mph 5.8 mph 54 % 0.00 in
19:20 41.3 °F 25.9 °F 30.30 in NNE 4.1 mph 8.1 mph 54 % 0.00 in
19:25 41.2 °F 26.2 °F 30.30 in NNE 3.3 mph 5.8 mph 55 % 0.00 in
19:30 41.1 °F 25.7 °F 30.30 in NNE 5.8 mph 11.5 mph 54 % 0.00 in
19:35 41.1 °F 25.3 °F 30.30 in North 5.4 mph 9.2 mph 53 % 0.00 in
19:45 40.9 °F 26.0 °F 30.30 in NE 5.3 mph 6.9 mph 55 % 0.00 in
19:50 40.9 °F 26.0 °F 30.30 in North 5.2 mph 9.0 mph 55 % 0.00 in
19:56 40.8 °F 26.3 °F 30.29 in North 4.1 mph 6.9 mph 56 % 0.00 in
20:01 40.7 °F 26.2 °F 30.30 in North 5.3 mph 8.1 mph 56 % 0.00 in
20:06 40.6 °F 26.1 °F 30.30 in NNE 5.4 mph 8.1 mph 56 % 0.00 in
20:11 40.4 °F 26.8 °F 30.30 in NNE 3.4 mph 6.9 mph 58 % 0.00 in
20:16 40.3 °F 26.7 °F 30.30 in NNE 3.3 mph 5.0 mph 58 % 0.00 in
20:21 40.2 °F 26.6 °F 30.30 in North 5.1 mph 8.1 mph 58 % 0.00 in
20:26 40.1 °F 26.9 °F 30.30 in North 3.3 mph 5.0 mph 59 % 0.00 in
20:31 40.0 °F 26.8 °F 30.30 in NNE 3.4 mph 9.2 mph 59 % 0.00 in
20:36 39.8 °F 27.0 °F 30.30 in North 3.2 mph 6.0 mph 60 % 0.00 in
20:41 39.8 °F 25.8 °F 30.30 in North 4.9 mph 8.1 mph 57 % 0.00 in
20:46 39.7 °F 25.3 °F 30.30 in NNE 5.9 mph 9.2 mph 56 % 0.00 in
20:51 39.7 °F 25.3 °F 30.31 in NE 4.6 mph 9.2 mph 56 % 0.00 in
20:56 39.6 °F 25.6 °F 30.31 in NE 6.2 mph 8.1 mph 57 % 0.00 in
21:01 39.6 °F 25.2 °F 30.31 in NE 6.7 mph 11.5 mph 56 % 0.00 in
21:06 39.5 °F 25.1 °F 30.31 in NE 6.8 mph 8.1 mph 56 % 0.00 in
21:11 39.5 °F 25.5 °F 30.32 in NE 6.2 mph 9.2 mph 57 % 0.00 in
21:16 39.3 °F 25.3 °F 30.32 in NE 5.0 mph 9.0 mph 57 % 0.00 in
21:21 39.3 °F 25.7 °F 30.32 in NNE 6.1 mph 8.1 mph 58 % 0.00 in
21:26 39.1 °F 25.6 °F 30.32 in NNE 6.0 mph 8.1 mph 58 % 0.00 in
21:31 39.0 °F 25.9 °F 30.31 in NNE 4.3 mph 6.9 mph 59 % 0.00 in
21:36 38.9 °F 26.2 °F 30.31 in NNE 4.4 mph 5.8 mph 60 % 0.00 in
21:41 38.8 °F 26.1 °F 30.31 in North 4.7 mph 6.9 mph 60 % 0.00 in
21:46 38.6 °F 26.7 °F 30.31 in NNE 4.5 mph 8.1 mph 62 % 0.00 in
21:51 38.4 °F 26.1 °F 30.31 in NE 4.4 mph 8.1 mph 61 % 0.00 in
21:57 38.3 °F 26.0 °F 30.31 in NNE 4.3 mph 6.9 mph 61 % 0.00 in
22:02 38.2 °F 25.9 °F 30.31 in NNE 6.9 mph 10.4 mph 61 % 0.00 in
22:07 38.1 °F 25.4 °F 30.31 in North 5.7 mph 6.9 mph 60 % 0.00 in
22:12 38.1 °F 25.4 °F 30.31 in NNE 3.4 mph 5.0 mph 60 % 0.00 in
22:17 38.0 °F 25.7 °F 30.31 in NE 3.7 mph 5.8 mph 61 % 0.00 in
22:22 37.9 °F 25.6 °F 30.32 in NNE 4.2 mph 8.1 mph 61 % 0.00 in
22:27 37.8 °F 25.5 °F 30.32 in NNE 4.6 mph 6.9 mph 61 % 0.00 in
22:32 37.8 °F 25.5 °F 30.32 in NNE 5.0 mph 9.0 mph 61 % 0.00 in
22:37 37.7 °F 25.5 °F 30.32 in NNE 3.5 mph 4.0 mph 61 % 0.00 in
22:42 37.6 °F 25.0 °F 30.32 in NE 3.9 mph 5.8 mph 60 % 0.00 in
22:47 37.5 °F 24.9 °F 30.32 in NNE 3.8 mph 5.8 mph 60 % 0.00 in
22:52 37.5 °F 25.3 °F 30.32 in NE 4.1 mph 6.0 mph 61 % 0.00 in
22:57 37.4 °F 25.2 °F 30.32 in NNE 4.3 mph 5.8 mph 61 % 0.00 in
23:02 37.2 °F 24.6 °F 30.33 in NNE 2.6 mph 6.9 mph 60 % 0.00 in
23:07 37.1 °F 24.9 °F 30.32 in NE 1.9 mph 3.5 mph 61 % 0.00 in
23:12 37.1 °F 25.3 °F 30.32 in NNE 1.5 mph 3.5 mph 62 % 0.00 in
23:17 37.0 °F 25.6 °F 30.33 in NNE 1.3 mph 4.6 mph 63 % 0.00 in
23:22 36.8 °F 25.4 °F 30.33 in ENE 1.3 mph 4.6 mph 63 % 0.00 in
23:27 36.7 °F 25.7 °F 30.33 in NE 1.6 mph 3.5 mph 64 % 0.00 in
23:32 36.6 °F 25.9 °F 30.33 in NE 1.8 mph 3.5 mph 65 % 0.00 in
23:37 36.5 °F 25.8 °F 30.33 in Calm   2.0 mph 65 % 0.00 in
23:42 36.4 °F 25.4 °F 30.33 in Calm   1.0 mph 64 % 0.00 in
23:47 36.3 °F 25.3 °F 30.33 in NE 0.3 mph 1.2 mph 64 % 0.00 in
23:52 36.1 °F 25.1 °F 30.33 in Calm     64 % 0.00 in
23:53 36.1 °F 25.1 °F 30.33 in Calm     64 % 0.00 in
23:58 35.9 °F 25.3 °F 30.33 in Calm     65 % 0.00 in
Crab Meadow Weather
Compliments of Weather Underground - 3 mb

Script developed by  Jim McMurry - jmcmurry@mwt.net Adapted for the template by  Wim van der Kuil - Leuven-Template.eu

Extremes: The most widespread U.S. cold wave was in February of 1899. It was so cold that the Mississippi River froze over its entire length, with ice as thick as two inches even in New Orleans.